createdAt,value
2019-01-23T00:01:08.481Z,41.08
2019-01-23T00:03:35.561Z,39.45
2019-01-23T00:06:02.614Z,40.40
2019-01-23T00:08:29.672Z,39.18
2019-01-23T00:10:56.750Z,39.90
2019-01-23T00:13:23.823Z,37.80
2019-01-23T00:15:53.683Z,40.45
2019-01-23T00:18:20.773Z,36.70
2019-01-23T00:20:47.851Z,41.05
2019-01-23T00:23:15.122Z,39.40
2019-01-23T00:25:42.186Z,38.48
2019-01-23T00:28:09.214Z,37.53
2019-01-23T00:30:36.276Z,38.60
2019-01-23T00:33:03.370Z,37.17
2019-01-23T00:35:30.428Z,41.42
2019-01-23T00:37:57.516Z,38.98
2019-01-23T00:40:24.553Z,38.85
2019-01-23T00:42:51.618Z,38.08
2019-01-23T00:45:18.670Z,36.80
2019-01-23T00:47:45.711Z,38.33
2019-01-23T00:50:53.600Z,40.10
2019-01-23T00:53:20.675Z,38.35
2019-01-23T00:55:47.703Z,37.23
2019-01-23T00:58:14.758Z,39.23
2019-01-23T01:00:41.798Z,37.55
2019-01-23T01:03:08.951Z,38.65
2019-01-23T01:05:36.002Z,36.93
2019-01-23T01:08:43.942Z,35.98
2019-01-23T01:11:10.998Z,38.88
2019-01-23T01:13:38.066Z,34.15
2019-01-23T01:16:05.118Z,38.58
2019-01-23T01:18:32.157Z,37.48
2019-01-23T01:20:59.250Z,39.65
2019-01-23T01:23:26.282Z,38.05
2019-01-23T01:25:53.397Z,37.50
2019-01-23T01:28:20.491Z,38.10
2019-01-23T01:30:47.589Z,37.10
2019-01-23T01:33:14.642Z,35.68
2019-01-23T01:35:41.707Z,38.30
2019-01-23T01:38:08.800Z,38.73
2019-01-23T01:40:35.884Z,38.60
2019-01-23T01:43:02.953Z,40.70
2019-01-23T01:45:30.010Z,39.30
2019-01-23T01:47:57.062Z,41.98
2019-01-23T01:50:24.149Z,39.15
2019-01-23T01:52:51.185Z,40.48
2019-01-23T01:55:18.221Z,37.67
2019-01-23T01:57:45.564Z,38.17
2019-01-23T02:00:22.674Z,35.92
2019-01-23T02:02:49.818Z,37.10
2019-01-23T02:05:17.006Z,40.33
2019-01-23T02:07:44.155Z,37.65
2019-01-23T02:10:13.094Z,37.60
2019-01-23T02:12:40.179Z,38.42
2019-01-23T02:15:08.323Z,41.37
2019-01-23T02:17:35.368Z,36.55
2019-01-23T02:20:03.540Z,36.17
2019-01-23T02:22:30.581Z,36.58
2019-01-23T02:24:57.652Z,38.00
2019-01-23T02:27:24.686Z,36.80
2019-01-23T02:29:51.748Z,36.70
2019-01-23T02:32:18.819Z,36.10
2019-01-23T02:34:45.912Z,33.48
2019-01-23T02:37:12.948Z,34.88
2019-01-23T02:39:40.028Z,33.92
2019-01-23T02:42:07.067Z,36.25
2019-01-23T02:44:34.140Z,37.48
2019-01-23T02:47:01.187Z,32.83
2019-01-23T02:49:28.239Z,35.43
2019-01-23T02:51:55.358Z,36.10
2019-01-23T02:54:22.434Z,39.53
2019-01-23T02:56:49.492Z,36.83
2019-01-23T02:59:17.433Z,37.23
2019-01-23T03:01:51.556Z,34.95
2019-01-23T03:04:18.709Z,36.42
2019-01-23T03:06:45.847Z,36.50
2019-01-23T03:09:12.892Z,35.65
2019-01-23T03:11:39.960Z,37.35
2019-01-23T03:14:07.029Z,37.48
2019-01-23T03:16:34.098Z,36.20
2019-01-23T03:19:01.140Z,33.63
2019-01-23T03:21:28.213Z,33.67
2019-01-23T03:23:55.395Z,36.17
2019-01-23T03:26:22.454Z,36.85
2019-01-23T03:28:49.534Z,34.20
2019-01-23T03:31:16.601Z,36.00
2019-01-23T03:33:43.683Z,35.40
2019-01-23T03:36:10.755Z,34.33
2019-01-23T03:38:37.829Z,33.18
2019-01-23T03:41:04.908Z,33.18
2019-01-23T03:43:31.942Z,33.60
2019-01-23T03:45:59.074Z,31.70
2019-01-23T03:48:26.121Z,34.65
2019-01-23T03:50:53.201Z,34.25
2019-01-23T03:53:20.209Z,31.25
2019-01-23T03:55:47.254Z,33.55
2019-01-23T03:58:14.305Z,34.45
2019-01-23T04:00:41.332Z,33.85
2019-01-23T04:03:08.389Z,34.58
2019-01-23T04:05:35.498Z,33.35
2019-01-23T04:08:02.552Z,34.70
2019-01-23T04:10:29.620Z,36.90
2019-01-23T04:12:56.682Z,32.78
2019-01-23T04:15:23.754Z,37.03
2019-01-23T04:17:50.845Z,34.55
2019-01-23T04:20:19.519Z,35.45
2019-01-23T04:22:46.572Z,35.15
2019-01-23T04:25:13.723Z,32.60
2019-01-23T04:27:40.846Z,33.08
2019-01-23T04:30:10.607Z,34.65
2019-01-23T04:32:37.640Z,35.70
2019-01-23T04:35:05.355Z,35.30
2019-01-23T04:37:32.400Z,37.63
2019-01-23T04:39:59.478Z,36.58
2019-01-23T04:42:26.526Z,37.60
2019-01-23T04:44:53.610Z,35.90
2019-01-23T04:47:20.687Z,37.75
2019-01-23T04:49:47.722Z,36.00
2019-01-23T04:52:32.935Z,39.92
2019-01-23T04:54:59.987Z,34.27
2019-01-23T04:57:27.040Z,38.48
2019-01-23T04:59:54.125Z,39.65
2019-01-23T05:02:21.222Z,36.40
2019-01-23T05:04:48.306Z,37.38
2019-01-23T05:07:15.338Z,36.50
2019-01-23T05:09:42.403Z,36.38
2019-01-23T05:12:09.468Z,36.03
2019-01-23T05:14:36.498Z,35.58
2019-01-23T05:17:03.689Z,39.38
2019-01-23T05:19:30.746Z,35.20
2019-01-23T05:21:57.810Z,38.65
2019-01-23T05:24:24.860Z,37.35
2019-01-23T05:26:51.896Z,36.53
2019-01-23T05:29:18.924Z,37.80
2019-01-23T05:31:45.984Z,40.43
2019-01-23T05:34:13.015Z,37.40
2019-01-23T05:36:40.094Z,37.03
2019-01-23T05:39:07.746Z,36.28
2019-01-23T05:41:34.838Z,39.78
2019-01-23T05:44:01.878Z,40.90
2019-01-23T05:46:28.937Z,39.18
2019-01-23T05:48:55.996Z,37.65
2019-01-23T05:51:23.074Z,38.73
2019-01-23T05:53:50.122Z,40.95
2019-01-23T05:56:17.177Z,35.20
2019-01-23T05:58:44.195Z,36.70
2019-01-23T06:01:11.284Z,38.95
2019-01-23T06:03:38.376Z,36.60
2019-01-23T06:06:05.451Z,33.95
2019-01-23T06:08:32.491Z,35.00
2019-01-23T06:10:59.579Z,31.85
2019-01-23T06:13:26.635Z,33.40
2019-01-23T06:15:53.715Z,34.13
2019-01-23T06:18:20.795Z,30.37
2019-01-23T06:20:47.883Z,35.33
2019-01-23T06:23:14.931Z,32.45
2019-01-23T06:25:41.984Z,30.48
2019-01-23T06:28:09.091Z,36.05
2019-01-23T06:30:36.151Z,32.63
2019-01-23T06:33:03.209Z,32.45
2019-01-23T06:35:30.281Z,33.90
2019-01-23T06:37:57.360Z,32.73
2019-01-23T06:40:24.411Z,32.95
2019-01-23T06:42:51.505Z,33.10
2019-01-23T06:45:18.781Z,34.75
2019-01-23T06:47:46.585Z,37.08
2019-01-23T06:50:15.453Z,36.80
2019-01-23T06:52:42.517Z,36.53
2019-01-23T06:55:09.792Z,34.80
2019-01-23T06:57:36.859Z,34.05
2019-01-23T07:00:06.156Z,35.90
2019-01-23T07:02:33.196Z,38.10
2019-01-23T07:05:00.258Z,32.78
2019-01-23T07:07:27.292Z,34.55
2019-01-23T07:09:54.405Z,35.80
2019-01-23T07:12:21.474Z,34.67
2019-01-23T07:14:48.533Z,33.88
2019-01-23T07:17:15.584Z,34.43
2019-01-23T07:19:42.693Z,32.45
2019-01-23T07:22:09.750Z,32.75
2019-01-23T07:24:36.855Z,32.38
2019-01-23T07:27:03.909Z,38.98
2019-01-23T07:29:31.008Z,46.63
2019-01-23T07:31:58.176Z,50.28
2019-01-23T07:34:25.216Z,49.25
2019-01-23T07:36:52.269Z,44.80
2019-01-23T07:39:19.314Z,43.73
2019-01-23T07:41:46.359Z,46.37
2019-01-23T07:44:13.448Z,46.28
2019-01-23T07:46:40.530Z,45.00
2019-01-23T07:49:07.562Z,43.60
2019-01-23T07:51:34.621Z,41.20
2019-01-23T07:54:01.804Z,44.08
2019-01-23T07:56:28.876Z,45.43
2019-01-23T07:58:55.959Z,44.35
2019-01-23T08:01:23.006Z,45.48
2019-01-23T08:03:50.084Z,41.55
2019-01-23T08:06:17.198Z,43.50
2019-01-23T08:08:44.301Z,40.73
2019-01-23T08:11:11.382Z,42.00
2019-01-23T08:13:38.455Z,42.48
2019-01-23T08:16:05.519Z,44.20
2019-01-23T08:18:32.591Z,45.38
2019-01-23T08:20:59.662Z,44.00
2019-01-23T08:23:26.697Z,42.93
2019-01-23T08:25:53.790Z,45.85
2019-01-23T08:28:20.847Z,42.43
2019-01-23T08:30:47.912Z,42.85
2019-01-23T08:33:14.965Z,43.00
2019-01-23T08:35:42.016Z,45.38
2019-01-23T08:38:09.091Z,44.08
2019-01-23T08:40:36.132Z,42.35
2019-01-23T08:43:44.059Z,41.13
2019-01-23T08:46:11.145Z,42.67
2019-01-23T08:48:38.205Z,36.38
2019-01-23T08:51:05.277Z,37.23
2019-01-23T08:53:32.420Z,37.17
2019-01-23T08:55:59.469Z,42.95
2019-01-23T08:58:26.550Z,44.50
2019-01-23T09:00:53.633Z,42.38
2019-01-23T09:03:20.717Z,42.90
2019-01-23T09:05:47.739Z,41.55
2019-01-23T09:08:14.816Z,40.70
2019-01-23T09:10:41.869Z,40.80
2019-01-23T09:13:08.918Z,41.30
2019-01-23T09:15:36.065Z,42.00
2019-01-23T09:21:05.437Z,39.67
2019-01-23T09:23:32.527Z,35.48
2019-01-23T09:25:59.616Z,39.73
2019-01-23T09:28:26.724Z,34.90
2019-01-23T09:31:17.218Z,33.28
2019-01-23T09:34:23.224Z,35.13
2019-01-23T09:37:29.248Z,36.42
2019-01-23T09:40:35.284Z,39.78
2019-01-23T09:43:52.706Z,34.67
2019-01-23T09:46:45.417Z,40.25
2019-01-23T09:49:46.960Z,32.78
2019-01-23T09:52:32.249Z,32.95
2019-01-23T09:54:59.304Z,35.58
2019-01-23T09:57:26.398Z,35.05
2019-01-23T09:59:53.436Z,34.13
2019-01-23T10:02:20.528Z,33.23
2019-01-23T10:04:47.570Z,33.42
2019-01-23T10:07:14.605Z,29.85
2019-01-23T10:09:41.697Z,32.15
2019-01-23T10:12:08.786Z,33.55
2019-01-23T10:14:35.822Z,32.05
2019-01-23T10:17:02.972Z,28.57
2019-01-23T10:19:30.029Z,30.02
2019-01-23T10:21:57.071Z,27.70
2019-01-23T10:24:24.128Z,29.40
2019-01-23T10:26:51.149Z,32.67
2019-01-23T10:29:18.210Z,31.90
2019-01-23T10:31:45.262Z,31.77
2019-01-23T10:34:12.330Z,28.80
2019-01-23T10:36:39.384Z,32.00
2019-01-23T10:39:07.701Z,33.85
2019-01-23T10:41:34.766Z,32.20
2019-01-23T10:44:01.812Z,30.23
2019-01-23T10:46:28.896Z,32.65
2019-01-23T10:48:55.956Z,33.53
2019-01-23T10:51:23.011Z,31.73
2019-01-23T10:53:50.055Z,33.05
2019-01-23T10:56:17.123Z,33.45
2019-01-23T10:58:44.165Z,30.15
2019-01-23T11:01:13.484Z,30.08
2019-01-23T11:03:40.181Z,34.45
2019-01-23T11:06:07.329Z,33.28
2019-01-23T11:08:34.394Z,30.35
2019-01-23T11:11:01.471Z,29.52
2019-01-23T11:13:28.548Z,30.88
2019-01-23T11:15:55.611Z,34.15
2019-01-23T11:18:22.685Z,33.88
2019-01-23T11:20:49.715Z,33.90
2019-01-23T11:23:16.861Z,31.48
2019-01-23T11:25:43.913Z,33.63
2019-01-23T11:28:10.985Z,34.75
2019-01-23T11:30:38.046Z,31.73
2019-01-23T11:33:05.108Z,33.50
2019-01-23T11:35:32.157Z,31.65
2019-01-23T11:37:59.206Z,30.88
2019-01-23T11:40:27.978Z,32.63
2019-01-23T11:42:55.036Z,30.43
2019-01-23T11:45:22.077Z,32.58
2019-01-23T11:47:49.127Z,29.10
2019-01-23T11:50:21.281Z,31.42
2019-01-23T11:52:45.721Z,31.93
2019-01-23T11:55:13.002Z,32.25
2019-01-23T11:57:40.058Z,30.72
2019-01-23T12:00:10.916Z,31.80
2019-01-23T12:02:37.988Z,35.00
2019-01-23T12:05:06.897Z,33.10
2019-01-23T12:07:34.004Z,35.30
2019-01-23T12:10:01.058Z,34.03
2019-01-23T12:12:28.128Z,36.08
2019-01-23T12:14:55.198Z,33.45
2019-01-23T12:17:22.285Z,30.40
2019-01-23T12:19:49.362Z,33.75
2019-01-23T12:22:16.438Z,33.30
2019-01-23T12:24:43.464Z,32.95
2019-01-23T12:27:10.529Z,34.20
2019-01-23T12:29:37.607Z,34.58
2019-01-23T12:32:04.650Z,32.30
2019-01-23T12:34:31.718Z,34.65
2019-01-23T12:36:58.771Z,34.38
2019-01-23T12:39:25.822Z,33.10
2019-01-23T12:41:52.868Z,33.45
2019-01-23T12:44:19.914Z,34.58
2019-01-23T12:46:46.961Z,37.63
2019-01-23T12:49:14.025Z,34.00
2019-01-23T12:51:41.080Z,34.15
2019-01-23T12:54:08.128Z,36.08
2019-01-23T12:56:35.149Z,35.30
2019-01-23T12:59:02.182Z,33.85
2019-01-23T13:01:29.266Z,35.08
2019-01-23T13:03:56.308Z,35.13
2019-01-23T13:06:23.378Z,35.40
2019-01-23T13:08:50.417Z,36.53
2019-01-23T13:11:17.463Z,39.55
2019-01-23T13:13:44.515Z,36.75
2019-01-23T13:16:11.597Z,35.38
2019-01-23T13:18:38.653Z,37.48
2019-01-23T13:21:05.701Z,38.58
2019-01-23T13:23:32.740Z,40.40
2019-01-23T13:25:59.780Z,36.98
2019-01-23T13:28:26.813Z,37.17
2019-01-23T13:30:53.877Z,38.65
2019-01-23T13:33:20.922Z,35.13
2019-01-23T13:35:47.960Z,36.00
2019-01-23T13:38:16.981Z,38.60
2019-01-23T13:40:44.034Z,34.40
2019-01-23T13:43:11.094Z,37.98
2019-01-23T13:45:38.132Z,36.38
2019-01-23T13:48:06.847Z,37.50
2019-01-23T13:50:33.950Z,38.33
2019-01-23T13:53:01.001Z,36.53
2019-01-23T13:55:28.040Z,35.90
2019-01-23T13:57:55.041Z,36.20
2019-01-23T14:00:24.767Z,36.48
2019-01-23T14:02:51.812Z,35.30
2019-01-23T14:05:18.856Z,34.55
2019-01-23T14:07:45.893Z,35.05
2019-01-23T14:10:13.481Z,37.38
2019-01-23T14:12:40.548Z,36.05
2019-01-23T14:15:10.330Z,39.73
2019-01-23T14:17:37.390Z,35.43
2019-01-23T14:20:05.792Z,39.98
2019-01-23T14:22:32.888Z,36.58
2019-01-23T14:24:59.921Z,38.17
2019-01-23T14:27:26.999Z,39.63
2019-01-23T14:29:54.047Z,35.70
2019-01-23T14:32:21.373Z,37.67
2019-01-23T14:34:48.434Z,37.63
2019-01-23T14:37:15.494Z,36.42
2019-01-23T14:39:42.566Z,37.20
2019-01-23T14:42:09.612Z,37.50
2019-01-23T14:44:36.693Z,33.50
2019-01-23T14:47:03.777Z,34.65
2019-01-23T14:49:30.848Z,35.90
2019-01-23T14:51:57.909Z,35.45
2019-01-23T14:54:25.001Z,38.88
2019-01-23T14:56:52.052Z,39.85
2019-01-23T14:59:19.137Z,36.00
2019-01-23T15:01:46.204Z,36.80
2019-01-23T15:04:13.301Z,40.60
2019-01-23T15:06:40.389Z,36.83
2019-01-23T15:09:07.502Z,36.77
2019-01-23T15:11:34.561Z,37.00
2019-01-23T15:14:01.639Z,38.02
2019-01-23T15:16:28.694Z,39.55
2019-01-23T15:18:55.796Z,37.67
2019-01-23T15:21:22.817Z,36.73
2019-01-23T15:23:49.877Z,40.40
2019-01-23T15:26:16.947Z,41.70
2019-01-23T15:28:44.032Z,38.30
2019-01-23T15:31:11.111Z,40.80
2019-01-23T15:33:38.193Z,37.95
2019-01-23T15:36:05.324Z,35.88
2019-01-23T15:38:32.391Z,35.75
2019-01-23T15:40:59.504Z,35.03
2019-01-23T15:43:26.564Z,35.33
2019-01-23T15:45:53.613Z,36.42
2019-01-23T15:48:20.695Z,39.67
2019-01-23T15:50:47.764Z,38.23
2019-01-23T15:53:16.734Z,36.55
2019-01-23T15:55:43.805Z,36.98
2019-01-23T15:58:10.889Z,34.48
2019-01-23T16:00:38.160Z,35.60
2019-01-23T16:03:05.203Z,35.25
2019-01-23T16:05:32.289Z,36.08
2019-01-23T16:07:59.396Z,40.55
2019-01-23T16:10:27.488Z,35.65
2019-01-23T16:12:54.599Z,35.33
2019-01-23T16:15:22.642Z,37.93
2019-01-23T16:17:49.736Z,35.98
2019-01-23T16:20:19.309Z,37.05
2019-01-23T16:22:46.492Z,35.80
2019-01-23T16:25:14.144Z,36.10
2019-01-23T16:27:41.264Z,37.35
2019-01-23T16:30:12.745Z,35.90
2019-01-23T16:32:47.087Z,33.88
2019-01-23T16:35:14.232Z,35.23
2019-01-23T16:37:41.435Z,35.23
2019-01-23T16:40:08.580Z,35.73
2019-01-23T16:42:35.692Z,33.88
2019-01-23T16:45:03.921Z,36.15
2019-01-23T16:47:30.996Z,32.85
2019-01-23T16:49:58.148Z,36.60
2019-01-23T16:52:25.300Z,34.58
2019-01-23T16:54:52.400Z,36.50
2019-01-23T16:57:19.507Z,37.85
2019-01-23T16:59:46.645Z,37.83
2019-01-23T17:02:13.742Z,34.75
2019-01-23T17:04:40.895Z,36.33
2019-01-23T17:07:08.022Z,36.95
2019-01-23T17:09:35.142Z,35.88
2019-01-23T17:12:09.009Z,36.40
2019-01-23T17:14:31.323Z,37.48
2019-01-23T17:16:58.521Z,37.28
2019-01-23T17:19:25.644Z,35.65
2019-01-23T17:21:52.784Z,35.83
2019-01-23T17:24:19.892Z,34.92
2019-01-23T17:26:47.031Z,36.23
2019-01-23T17:29:17.602Z,35.58
2019-01-23T17:31:44.752Z,39.08
2019-01-23T17:34:12.525Z,36.17
2019-01-23T17:36:39.636Z,35.98
2019-01-23T17:39:08.519Z,38.48
2019-01-23T17:41:35.714Z,37.48
2019-01-23T17:44:03.231Z,38.90
2019-01-23T17:46:30.767Z,34.92
2019-01-23T17:48:58.051Z,37.48
2019-01-23T17:51:25.617Z,36.20
2019-01-23T17:53:52.949Z,35.23
2019-01-23T17:56:21.079Z,37.28
2019-01-23T17:58:48.206Z,36.85
2019-01-23T18:01:15.357Z,37.60
2019-01-23T18:03:42.507Z,38.53
2019-01-23T18:06:09.965Z,38.13
2019-01-23T18:08:37.107Z,38.80
2019-01-23T18:11:04.795Z,37.65
2019-01-23T18:13:32.047Z,40.58
2019-01-23T18:16:11.151Z,38.85
2019-01-23T18:18:38.592Z,38.35
2019-01-23T18:21:05.787Z,40.38
2019-01-23T18:23:35.159Z,41.73
2019-01-23T18:26:02.592Z,37.17
2019-01-23T18:28:30.033Z,42.50
2019-01-23T18:31:09.074Z,38.78
2019-01-23T18:33:44.722Z,39.05
2019-01-23T18:37:12.152Z,40.33
2019-01-23T18:40:08.168Z,41.33
2019-01-23T18:43:15.536Z,38.45
2019-01-23T18:46:10.626Z,39.30
2019-01-23T18:49:10.944Z,39.13
2019-01-23T18:51:44.004Z,40.60
2019-01-23T18:54:11.196Z,39.25
2019-01-23T18:56:38.479Z,38.15
2019-01-23T18:59:05.846Z,39.10
2019-01-23T19:01:33.109Z,38.17
2019-01-23T19:04:00.292Z,42.95
2019-01-23T19:06:27.569Z,39.42
2019-01-23T19:08:55.040Z,40.38
2019-01-23T19:11:23.607Z,40.25
2019-01-23T19:13:50.895Z,38.53
2019-01-23T19:16:18.239Z,42.10
2019-01-23T19:18:46.348Z,38.80
2019-01-23T19:21:13.712Z,39.40
2019-01-23T19:23:41.454Z,40.98
2019-01-23T19:26:08.649Z,40.98
2019-01-23T19:28:37.872Z,42.65
2019-01-23T19:31:05.034Z,38.35
2019-01-23T19:33:32.269Z,41.53
2019-01-23T19:35:59.644Z,40.38
2019-01-23T19:38:29.482Z,40.63
2019-01-23T19:40:56.854Z,39.95
2019-01-23T19:43:24.490Z,44.58
2019-01-23T19:45:51.776Z,42.33
2019-01-23T19:48:19.147Z,40.98
2019-01-23T19:50:49.839Z,42.90
2019-01-23T19:53:17.630Z,40.48
2019-01-23T19:55:45.337Z,40.90
2019-01-23T19:58:13.541Z,41.73
2019-01-23T20:00:41.033Z,42.93
2019-01-23T20:03:08.506Z,49.35
2019-01-23T20:05:37.156Z,44.05
2019-01-23T20:08:06.194Z,44.58
2019-01-23T20:10:33.797Z,45.88
2019-01-23T20:13:01.084Z,43.58
2019-01-23T20:15:31.950Z,42.58
2019-01-23T20:18:02.921Z,44.58
2019-01-23T20:20:32.039Z,42.98
2019-01-23T20:22:59.220Z,41.85
2019-01-23T20:25:26.732Z,44.48
2019-01-23T20:27:54.563Z,42.95
2019-01-23T20:30:33.872Z,42.73
2019-01-23T20:33:01.205Z,40.92
2019-01-23T20:35:28.815Z,40.63
2019-01-23T20:37:56.768Z,41.63
2019-01-23T20:40:24.450Z,44.77
2019-01-23T20:42:51.557Z,43.65
2019-01-23T20:45:18.929Z,41.92
2019-01-23T20:47:46.042Z,44.83
2019-01-23T20:50:24.353Z,40.12
2019-01-23T20:52:52.333Z,43.85
2019-01-23T20:55:19.785Z,44.20
2019-01-23T20:57:49.400Z,41.20
2019-01-23T21:00:18.787Z,41.83
2019-01-23T21:02:46.025Z,44.85
2019-01-23T21:05:15.963Z,42.08
2019-01-23T21:07:43.122Z,41.75
2019-01-23T21:10:11.387Z,44.25
2019-01-23T21:12:38.516Z,43.87
2019-01-23T21:15:05.757Z,43.02
2019-01-23T21:17:32.882Z,41.68
2019-01-23T21:20:00.032Z,43.75
2019-01-23T21:22:27.159Z,43.10
2019-01-23T21:24:54.289Z,41.25
2019-01-23T21:27:21.444Z,43.85
2019-01-23T21:29:48.556Z,45.03
2019-01-23T21:32:15.685Z,43.23
2019-01-23T21:34:42.814Z,40.45
2019-01-23T21:37:09.940Z,42.33
2019-01-23T21:39:37.077Z,44.15
2019-01-23T21:42:04.175Z,39.23
2019-01-23T21:44:31.620Z,41.05
2019-01-23T21:46:58.712Z,42.35
2019-01-23T21:49:25.807Z,41.63
2019-01-23T21:51:54.784Z,38.48
2019-01-23T21:54:21.910Z,41.35
2019-01-23T21:56:49.002Z,41.40
2019-01-23T21:59:16.116Z,41.70
2019-01-23T22:01:44.622Z,41.60
2019-01-23T22:04:11.726Z,42.08
2019-01-23T22:06:39.081Z,39.10
2019-01-23T22:09:07.665Z,40.05
2019-01-23T22:11:34.761Z,38.20
2019-01-23T22:14:01.843Z,35.75
2019-01-23T22:16:28.876Z,36.23
2019-01-23T22:18:55.961Z,38.25
2019-01-23T22:21:22.997Z,39.38
2019-01-23T22:23:50.032Z,39.08
2019-01-23T22:26:17.096Z,37.90
2019-01-23T22:28:44.122Z,38.02
2019-01-23T22:31:11.168Z,37.33
2019-01-23T22:33:38.242Z,40.80
2019-01-23T22:36:05.303Z,39.50
2019-01-23T22:38:32.328Z,41.18
2019-01-23T22:40:59.373Z,38.13
2019-01-23T22:43:26.427Z,41.10
2019-01-23T22:45:53.501Z,41.08
2019-01-23T22:48:20.551Z,41.73
2019-01-23T22:50:47.609Z,36.70
2019-01-23T22:53:14.668Z,38.42
2019-01-23T22:55:41.716Z,41.05
2019-01-23T22:58:08.777Z,39.10
2019-01-23T23:01:12.459Z,36.90
2019-01-23T23:03:39.628Z,37.17
2019-01-23T23:06:06.678Z,34.67
2019-01-23T23:08:33.706Z,39.40
2019-01-23T23:11:00.750Z,38.08
2019-01-23T23:13:27.792Z,35.90
2019-01-23T23:15:56.632Z,38.45
2019-01-23T23:18:23.680Z,39.83
2019-01-23T23:20:50.745Z,39.20
2019-01-23T23:23:18.103Z,34.53
2019-01-23T23:25:45.994Z,35.98
2019-01-23T23:28:13.068Z,39.63
2019-01-23T23:30:40.114Z,38.42
2019-01-23T23:33:07.164Z,41.98
2019-01-23T23:35:34.217Z,40.90
2019-01-23T23:38:01.240Z,34.67
2019-01-23T23:40:28.283Z,37.38
2019-01-23T23:42:55.304Z,37.15
2019-01-23T23:45:22.342Z,35.08
2019-01-23T23:47:49.391Z,36.23
2019-01-23T23:50:16.543Z,36.68
2019-01-23T23:52:43.572Z,34.08
2019-01-23T23:55:10.861Z,37.28
2019-01-23T23:57:37.882Z,36.65
